createdAt,value
2018-07-21T00:02:18.292Z,16.50
2018-07-21T00:04:51.364Z,16.50
2018-07-21T00:07:23.305Z,16.40
2018-07-21T00:09:55.277Z,16.30
2018-07-21T00:12:27.432Z,16.20
2018-07-21T00:14:59.617Z,16.20
2018-07-21T00:17:31.709Z,16.10
2018-07-21T00:20:04.140Z,16.00
2018-07-21T00:22:37.705Z,15.90
2018-07-21T00:25:11.098Z,15.80
2018-07-21T00:27:43.472Z,15.80
2018-07-21T00:30:16.204Z,15.70
2018-07-21T00:32:48.314Z,15.70
2018-07-21T00:35:21.132Z,15.70
2018-07-21T00:37:52.969Z,15.70
2018-07-21T00:40:24.878Z,15.60
2018-07-21T00:42:56.808Z,15.60
2018-07-21T00:45:29.051Z,15.60
2018-07-21T00:48:01.112Z,15.60
2018-07-21T00:50:33.206Z,15.60
2018-07-21T00:53:05.761Z,15.50
2018-07-21T00:55:38.080Z,15.40
2018-07-21T00:58:09.933Z,15.30
2018-07-21T01:00:42.760Z,15.30
2018-07-21T01:03:15.323Z,15.30
2018-07-21T01:05:47.873Z,15.20
2018-07-21T01:08:19.778Z,15.20
2018-07-21T01:10:52.235Z,15.30
2018-07-21T01:13:24.060Z,15.30
2018-07-21T01:15:55.823Z,15.40
2018-07-21T01:18:28.167Z,15.50
2018-07-21T01:21:00.568Z,15.60
2018-07-21T01:26:03.875Z,15.70
2018-07-21T01:28:36.483Z,15.80
2018-07-21T01:31:09.393Z,15.90
2018-07-21T01:33:41.852Z,15.90
2018-07-21T01:36:13.748Z,15.90
2018-07-21T01:38:45.972Z,15.90
2018-07-21T01:41:18.898Z,15.80
2018-07-21T01:43:51.349Z,15.80
2018-07-21T01:46:23.575Z,15.80
2018-07-21T01:48:56.020Z,15.80
2018-07-21T01:51:28.295Z,15.80
2018-07-21T01:56:31.908Z,15.70
2018-07-21T01:59:04.100Z,15.70
2018-07-21T02:01:36.564Z,15.60
2018-07-21T02:04:08.752Z,15.60
2018-07-21T02:06:41.169Z,15.60
2018-07-21T02:09:13.413Z,15.60
2018-07-21T02:11:45.270Z,15.60
2018-07-21T02:14:17.652Z,15.60
2018-07-21T02:16:50.613Z,15.60
2018-07-21T02:19:22.524Z,15.50
2018-07-21T02:21:54.880Z,15.50
2018-07-21T02:24:27.446Z,15.40
2018-07-21T02:26:59.407Z,15.40
2018-07-21T02:29:31.264Z,15.40
2018-07-21T02:32:03.112Z,15.30
2018-07-21T02:34:34.939Z,15.30
2018-07-21T02:37:06.728Z,15.30
2018-07-21T02:39:40.784Z,15.20
2018-07-21T02:42:12.560Z,15.20
2018-07-21T02:44:44.788Z,15.10
2018-07-21T02:47:17.049Z,15.10
2018-07-21T02:49:49.123Z,15.00
2018-07-21T02:52:21.100Z,15.00
2018-07-21T02:54:52.957Z,15.00
2018-07-21T02:57:24.839Z,15.00
2018-07-21T02:59:57.288Z,14.90
2018-07-21T03:02:29.499Z,14.90
2018-07-21T03:05:01.807Z,15.00
2018-07-21T03:07:33.865Z,15.00
2018-07-21T03:10:06.359Z,14.90
2018-07-21T03:15:11.327Z,14.80
2018-07-21T03:17:44.112Z,14.80
2018-07-21T03:20:16.177Z,14.80
2018-07-21T03:22:48.271Z,14.80
2018-07-21T03:25:20.573Z,14.80
2018-07-21T03:27:53.270Z,14.80
2018-07-21T03:30:25.149Z,14.90
2018-07-21T03:32:57.418Z,14.90
2018-07-21T03:35:29.360Z,14.90
2018-07-21T03:38:01.554Z,14.90
2018-07-21T03:40:33.795Z,15.00
2018-07-21T03:43:06.239Z,15.00
2018-07-21T03:45:38.632Z,15.00
2018-07-21T03:48:10.808Z,15.10
2018-07-21T03:53:14.091Z,15.30
2018-07-21T03:55:46.580Z,15.40
2018-07-21T03:58:18.799Z,15.50
2018-07-21T04:00:50.711Z,15.50
2018-07-21T04:03:22.771Z,15.60
2018-07-21T04:05:54.511Z,15.60
2018-07-21T04:08:27.099Z,15.60
2018-07-21T04:10:59.087Z,15.60
2018-07-21T04:13:30.951Z,15.60
2018-07-21T04:18:33.672Z,15.60
2018-07-21T04:23:36.677Z,15.70
2018-07-21T04:26:09.524Z,15.70
2018-07-21T04:28:41.417Z,15.80
2018-07-21T04:31:13.523Z,15.90
2018-07-21T04:33:46.048Z,15.90
2018-07-21T04:36:17.831Z,16.00
2018-07-21T04:38:49.675Z,16.00
2018-07-21T04:41:21.611Z,16.10
2018-07-21T04:43:53.476Z,16.20
2018-07-21T04:46:25.700Z,16.30
2018-07-21T04:48:57.547Z,16.40
2018-07-21T04:51:29.314Z,16.50
2018-07-21T04:54:01.666Z,16.60
2018-07-21T04:56:34.460Z,16.70
2018-07-21T04:59:06.914Z,16.80
2018-07-21T05:01:38.877Z,17.00
2018-07-21T05:04:11.546Z,17.20
2018-07-21T05:06:43.986Z,17.30
2018-07-21T05:09:16.391Z,17.50
2018-07-21T05:11:48.223Z,17.70
2018-07-21T05:14:20.020Z,17.90
2018-07-21T05:16:52.412Z,18.10
2018-07-21T05:19:25.024Z,18.30
2018-07-21T05:21:59.672Z,18.60
2018-07-21T05:24:32.791Z,18.80
2018-07-21T05:27:04.734Z,19.00
2018-07-21T05:29:37.391Z,19.20
2018-07-21T05:34:40.703Z,19.40
2018-07-21T05:39:45.527Z,19.70
2018-07-21T05:42:17.360Z,19.80
2018-07-21T05:44:49.183Z,19.90
2018-07-21T05:47:22.104Z,20.00
2018-07-21T05:49:54.864Z,20.00
2018-07-21T05:54:58.624Z,20.20
2018-07-21T05:57:31.461Z,20.30
2018-07-21T06:00:03.912Z,20.40
2018-07-21T06:02:35.732Z,20.40
2018-07-21T06:05:09.095Z,20.50
2018-07-21T06:07:41.369Z,20.50
2018-07-21T06:10:13.204Z,20.60
2018-07-21T06:12:45.120Z,20.60
2018-07-21T06:15:17.286Z,20.60
2018-07-21T06:17:50.293Z,20.60
2018-07-21T06:20:27.548Z,20.70
2018-07-21T06:23:03.060Z,20.80
2018-07-21T06:25:36.965Z,21.00
2018-07-21T06:30:43.509Z,21.30
2018-07-21T06:33:18.003Z,21.40
2018-07-21T06:35:50.400Z,21.40
2018-07-21T06:38:23.585Z,21.50
2018-07-21T06:40:56.057Z,21.80
2018-07-21T06:43:28.312Z,22.00
2018-07-21T06:46:00.236Z,22.30
2018-07-21T06:51:04.564Z,22.50
2018-07-21T06:56:07.764Z,22.90
2018-07-21T06:58:40.100Z,22.70
2018-07-21T07:01:12.036Z,22.50
2018-07-21T07:03:44.777Z,22.50
2018-07-21T07:06:16.771Z,22.60
2018-07-21T07:08:49.121Z,22.80
2018-07-21T07:11:21.031Z,22.90
2018-07-21T07:13:53.497Z,23.00
2018-07-21T07:16:25.576Z,22.80
2018-07-21T07:18:57.779Z,22.70
2018-07-21T07:21:29.639Z,22.60
2018-07-21T07:24:01.497Z,22.70
2018-07-21T07:26:35.314Z,22.80
2018-07-21T07:31:38.571Z,23.10
2018-07-21T07:34:10.989Z,23.20
2018-07-21T07:36:42.713Z,23.30
2018-07-21T07:39:15.103Z,23.50
2018-07-21T07:41:46.857Z,23.70
2018-07-21T07:44:18.724Z,23.90
2018-07-21T07:46:50.940Z,23.90
2018-07-21T07:49:22.766Z,24.10
2018-07-21T07:51:54.636Z,24.10
2018-07-21T07:54:26.952Z,24.10
2018-07-21T07:56:58.768Z,24.10
2018-07-21T07:59:30.673Z,24.20
2018-07-21T08:02:03.083Z,24.40
2018-07-21T08:04:34.880Z,24.40
2018-07-21T08:07:06.660Z,24.40
2018-07-21T08:09:38.572Z,24.40
2018-07-21T08:12:11.429Z,24.50
2018-07-21T08:14:43.693Z,24.50
2018-07-21T08:17:16.150Z,24.70
2018-07-21T08:19:48.653Z,25.10
2018-07-21T08:22:23.250Z,25.40
2018-07-21T08:24:56.699Z,25.40
2018-07-21T08:27:29.521Z,25.60
2018-07-21T08:30:01.376Z,25.50
2018-07-21T08:32:34.684Z,25.60
2018-07-21T08:35:08.660Z,25.60
2018-07-21T08:37:40.914Z,25.90
2018-07-21T08:40:12.876Z,26.00
2018-07-21T08:42:45.133Z,26.20
2018-07-21T08:45:17.651Z,25.90
2018-07-21T08:47:49.875Z,25.70
2018-07-21T08:50:23.309Z,25.50
2018-07-21T08:52:55.228Z,25.50
2018-07-21T08:55:28.139Z,25.50
2018-07-21T08:58:00.175Z,25.30
2018-07-21T09:00:32.457Z,25.10
2018-07-21T09:03:04.374Z,25.30
2018-07-21T09:05:36.339Z,25.30
2018-07-21T09:08:12.967Z,25.60
2018-07-21T09:10:44.962Z,25.70
2018-07-21T09:13:17.817Z,25.60
2018-07-21T09:15:49.777Z,25.50
2018-07-21T09:18:21.644Z,25.60
2018-07-21T09:20:54.658Z,25.80
2018-07-21T09:23:26.920Z,25.70
2018-07-21T09:25:58.857Z,25.70
2018-07-21T09:28:31.124Z,26.00
2018-07-21T09:31:02.828Z,26.10
2018-07-21T09:33:34.760Z,26.30
2018-07-21T09:36:06.687Z,26.50
2018-07-21T09:38:38.660Z,26.40
2018-07-21T09:41:10.544Z,26.60
2018-07-21T09:43:43.726Z,26.70
2018-07-21T09:46:15.545Z,26.80
2018-07-21T09:48:47.320Z,27.00
2018-07-21T09:51:19.687Z,26.90
2018-07-21T09:53:51.380Z,26.80
2018-07-21T09:56:24.364Z,26.50
2018-07-21T09:58:56.828Z,26.40
2018-07-21T10:01:28.811Z,26.40
2018-07-21T10:04:03.926Z,26.60
2018-07-21T10:06:37.099Z,26.80
2018-07-21T10:09:14.308Z,27.20
2018-07-21T10:11:48.340Z,27.40
2018-07-21T10:14:21.096Z,27.90
2018-07-21T10:16:55.042Z,28.20
2018-07-21T10:19:27.348Z,28.10
2018-07-21T10:21:59.680Z,28.00
2018-07-21T10:24:36.513Z,27.80
2018-07-21T10:27:15.268Z,27.80
2018-07-21T10:29:47.209Z,28.00
2018-07-21T10:32:19.906Z,28.20
2018-07-21T10:34:53.106Z,28.30
2018-07-21T10:37:27.052Z,28.50
2018-07-21T10:40:00.106Z,28.70
2018-07-21T10:42:32.117Z,28.70
2018-07-21T10:45:04.153Z,28.80
2018-07-21T10:47:36.321Z,28.60
2018-07-21T10:50:08.130Z,29.00
2018-07-21T10:52:40.671Z,29.00
2018-07-21T10:55:13.204Z,29.10
2018-07-21T10:57:45.067Z,29.40
2018-07-21T11:00:16.974Z,30.20
2018-07-21T11:02:49.099Z,30.40
2018-07-21T11:05:21.362Z,30.80
2018-07-21T11:07:53.387Z,30.80
2018-07-21T11:12:56.592Z,31.50
2018-07-21T11:15:28.580Z,31.70
2018-07-21T11:18:00.539Z,31.70
2018-07-21T11:20:32.613Z,31.50
2018-07-21T11:23:04.610Z,31.60
2018-07-21T11:25:37.133Z,32.00
2018-07-21T11:28:09.698Z,31.90
2018-07-21T11:30:41.840Z,31.90
2018-07-21T11:33:13.861Z,32.50
2018-07-21T11:35:46.440Z,32.40
2018-07-21T11:38:18.230Z,32.50
2018-07-21T11:40:50.321Z,32.80
2018-07-21T11:43:22.313Z,33.00
2018-07-21T11:45:54.075Z,33.20
2018-07-21T11:48:25.870Z,33.40
2018-07-21T11:51:01.458Z,33.90
2018-07-21T11:53:34.911Z,34.10
2018-07-21T11:56:07.489Z,34.00
2018-07-21T11:58:51.022Z,33.20
2018-07-21T12:01:23.780Z,32.90
2018-07-21T12:03:55.748Z,32.60
2018-07-21T12:06:27.613Z,32.70
2018-07-21T12:08:59.651Z,32.70
2018-07-21T12:11:34.461Z,32.70
2018-07-21T12:14:06.416Z,32.80
2018-07-21T12:16:38.325Z,32.90
2018-07-21T12:19:10.891Z,33.40
2018-07-21T12:24:14.181Z,34.40
2018-07-21T12:26:46.585Z,35.00
2018-07-21T12:29:18.423Z,35.30
2018-07-21T12:31:50.737Z,35.30
2018-07-21T12:34:23.016Z,35.60
2018-07-21T12:36:56.054Z,35.60
2018-07-21T12:39:27.906Z,35.60
2018-07-21T12:41:59.909Z,35.30
2018-07-21T12:44:31.910Z,35.10
2018-07-21T12:47:04.218Z,35.00
2018-07-21T12:49:37.517Z,34.30
2018-07-21T12:52:09.526Z,34.40
2018-07-21T12:54:41.650Z,34.80
2018-07-21T12:57:13.547Z,34.90
2018-07-21T12:59:45.567Z,35.30
2018-07-21T13:02:17.600Z,35.60
2018-07-21T13:04:49.779Z,35.50
2018-07-21T13:07:21.644Z,35.90
2018-07-21T13:09:55.033Z,35.90
2018-07-21T13:12:27.420Z,35.60
2018-07-21T13:14:59.335Z,35.40
2018-07-21T13:17:31.217Z,35.70
2018-07-21T13:20:03.398Z,35.60
2018-07-21T13:22:36.413Z,35.10
2018-07-21T13:25:08.470Z,35.10
2018-07-21T13:27:40.856Z,34.40
2018-07-21T13:30:12.712Z,34.30
2018-07-21T13:32:44.600Z,34.60
2018-07-21T13:35:16.937Z,34.40
2018-07-21T13:37:48.837Z,34.00
2018-07-21T13:40:20.696Z,34.10
2018-07-21T13:42:52.693Z,34.60
2018-07-21T13:45:24.573Z,35.50
2018-07-21T13:47:56.389Z,36.20
2018-07-21T13:50:28.721Z,37.40
2018-07-21T13:53:00.601Z,38.30
2018-07-21T13:55:33.311Z,38.00
2018-07-21T13:58:05.476Z,38.50
2018-07-21T14:00:37.344Z,38.20
2018-07-21T14:03:09.397Z,38.30
2018-07-21T14:05:48.482Z,37.30
2018-07-21T14:08:23.160Z,36.90
2018-07-21T14:10:55.579Z,36.40
2018-07-21T14:13:27.823Z,36.40
2018-07-21T14:16:00.681Z,36.00
2018-07-21T14:18:36.759Z,35.40
2018-07-21T14:21:11.376Z,34.40
2018-07-21T14:23:44.026Z,33.60
2018-07-21T14:26:16.264Z,32.80
2018-07-21T14:28:48.272Z,32.50
2018-07-21T14:31:21.709Z,32.60
2018-07-21T14:33:53.776Z,32.20
2018-07-21T14:36:27.275Z,32.00
2018-07-21T14:38:59.574Z,31.60
2018-07-21T14:41:31.751Z,31.10
2018-07-21T14:44:03.997Z,30.70
2018-07-21T14:46:36.096Z,30.80
2018-07-21T14:49:08.153Z,30.90
2018-07-21T14:51:40.936Z,30.90
2018-07-21T14:54:13.045Z,30.90
2018-07-21T14:56:45.529Z,30.80
2018-07-21T14:59:18.546Z,30.90
2018-07-21T15:01:50.364Z,31.00
2018-07-21T15:04:22.161Z,30.80
2018-07-21T15:06:54.922Z,30.80
2018-07-21T15:09:27.190Z,31.00
2018-07-21T15:11:59.034Z,31.00
2018-07-21T15:14:30.853Z,31.00
2018-07-21T15:17:02.842Z,31.00
2018-07-21T15:19:34.661Z,30.90
2018-07-21T15:22:06.827Z,30.90
2018-07-21T15:24:39.761Z,30.90
2018-07-21T15:27:12.049Z,30.90
2018-07-21T15:29:44.118Z,30.90
2018-07-21T15:32:15.929Z,30.80
2018-07-21T15:34:47.807Z,30.70
2018-07-21T15:37:19.985Z,30.50
2018-07-21T15:39:52.832Z,30.30
2018-07-21T15:42:24.699Z,30.20
2018-07-21T15:44:59.325Z,30.00
2018-07-21T15:47:50.668Z,29.90
2018-07-21T15:50:32.883Z,29.80
2018-07-21T15:53:06.154Z,29.60
2018-07-21T15:55:39.193Z,29.40
2018-07-21T15:58:12.567Z,29.40
2018-07-21T16:00:48.226Z,29.40
2018-07-21T16:03:22.612Z,29.40
2018-07-21T16:05:57.446Z,29.50
2018-07-21T16:08:30.889Z,29.30
2018-07-21T16:11:07.966Z,29.20
2018-07-21T16:13:41.122Z,29.30
2018-07-21T16:16:14.369Z,29.10
2018-07-21T16:18:46.724Z,29.20
2018-07-21T16:21:19.597Z,29.20
2018-07-21T16:23:52.042Z,29.20
2018-07-21T16:26:24.774Z,29.20
2018-07-21T16:28:59.558Z,29.10
2018-07-21T16:31:33.681Z,29.10
2018-07-21T16:34:06.022Z,29.10
2018-07-21T16:39:13.597Z,29.10
2018-07-21T16:41:45.509Z,29.10
2018-07-21T16:44:20.475Z,29.10
2018-07-21T16:46:53.692Z,28.80
2018-07-21T16:49:27.117Z,28.80
2018-07-21T16:51:59.357Z,28.80
2018-07-21T16:54:31.653Z,28.70
2018-07-21T16:57:03.636Z,28.70
2018-07-21T16:59:36.439Z,28.70
2018-07-21T17:02:08.526Z,28.60
2018-07-21T17:04:40.466Z,28.50
2018-07-21T17:07:12.569Z,28.70
2018-07-21T17:09:44.852Z,28.80
2018-07-21T17:12:17.517Z,28.70
2018-07-21T17:14:50.737Z,28.90
2018-07-21T17:17:23.245Z,29.00
2018-07-21T17:19:57.731Z,28.90
2018-07-21T17:22:31.526Z,29.10
2018-07-21T17:25:05.560Z,29.30
2018-07-21T17:27:37.614Z,29.50
2018-07-21T17:30:10.522Z,29.60
2018-07-21T17:32:42.329Z,29.80
2018-07-21T17:35:14.434Z,30.00
2018-07-21T17:37:47.230Z,30.10
2018-07-21T17:40:20.830Z,30.30
2018-07-21T17:42:53.009Z,30.60
2018-07-21T17:45:24.915Z,30.70
2018-07-21T17:47:57.128Z,30.70
2018-07-21T17:50:29.594Z,30.40
2018-07-21T17:53:01.543Z,30.20
2018-07-21T17:55:33.406Z,29.90
2018-07-21T17:58:05.697Z,29.80
2018-07-21T18:00:38.579Z,30.30
2018-07-21T18:03:10.474Z,30.70
2018-07-21T18:05:42.467Z,30.50
2018-07-21T18:08:14.703Z,30.40
2018-07-21T18:10:47.064Z,30.40
2018-07-21T18:13:18.915Z,30.60
2018-07-21T18:15:50.751Z,30.80
2018-07-21T18:18:23.555Z,30.90
2018-07-21T18:20:56.420Z,30.90
2018-07-21T18:23:36.029Z,30.90
2018-07-21T18:26:09.189Z,30.70
2018-07-21T18:28:41.557Z,30.60
2018-07-21T18:31:13.700Z,30.50
2018-07-21T18:33:45.829Z,30.40
2018-07-21T18:36:17.954Z,30.20
2018-07-21T18:38:50.592Z,29.90
2018-07-21T18:41:23.531Z,29.70
2018-07-21T18:43:55.402Z,29.40
2018-07-21T18:46:27.923Z,28.80
2018-07-21T18:49:02.428Z,28.40
2018-07-21T18:51:35.394Z,27.90
2018-07-21T18:54:07.588Z,27.60
2018-07-21T18:56:40.610Z,27.20
2018-07-21T18:59:14.620Z,27.00
2018-07-21T19:01:47.692Z,26.70
2018-07-21T19:04:21.522Z,26.50
2018-07-21T19:06:53.589Z,26.20
2018-07-21T19:09:25.559Z,26.00
2018-07-21T19:12:04.008Z,25.70
2018-07-21T19:14:36.240Z,25.60
2018-07-21T19:17:10.796Z,25.30
2018-07-21T19:19:48.651Z,25.10
2018-07-21T19:22:21.289Z,25.00
2018-07-21T19:24:54.544Z,24.80
2018-07-21T19:27:35.469Z,24.70
2018-07-21T19:30:08.658Z,24.60
2018-07-21T19:32:45.575Z,24.50
2018-07-21T19:35:18.482Z,24.40
2018-07-21T19:37:51.023Z,24.30
2018-07-21T19:40:23.268Z,24.30
2018-07-21T19:42:56.177Z,24.10
2018-07-21T19:45:28.923Z,24.10
2018-07-21T19:48:00.805Z,24.00
2018-07-21T19:50:33.966Z,23.90
2018-07-21T19:53:08.330Z,23.90
2018-07-21T19:57:02.651Z,23.90
2018-07-21T19:59:37.901Z,23.70
2018-07-21T20:02:11.005Z,23.80
2018-07-21T20:04:43.348Z,23.80
2018-07-21T20:07:15.772Z,23.80
2018-07-21T20:09:48.502Z,23.80
2018-07-21T20:12:20.852Z,23.80
2018-07-21T20:17:27.161Z,23.60
2018-07-21T20:20:01.008Z,23.50
2018-07-21T20:22:34.203Z,23.40
2018-07-21T20:25:08.211Z,23.30
2018-07-21T20:27:42.868Z,23.20
2018-07-21T20:30:21.878Z,23.20
2018-07-21T20:32:54.065Z,23.00
2018-07-21T20:35:27.749Z,23.00
2018-07-21T20:38:06.284Z,22.90
2018-07-21T20:40:40.736Z,22.90
2018-07-21T20:45:53.147Z,22.70
2018-07-21T20:48:28.088Z,22.70
2018-07-21T20:51:02.283Z,22.70
2018-07-21T20:54:02.078Z,22.60
2018-07-21T20:56:38.517Z,22.50
2018-07-21T20:59:13.107Z,22.40
2018-07-21T21:01:47.152Z,22.40
2018-07-21T21:04:22.940Z,22.30
2018-07-21T21:06:58.352Z,22.20
2018-07-21T21:09:32.124Z,22.10
2018-07-21T21:12:05.422Z,22.10
2018-07-21T21:14:39.469Z,22.00
2018-07-21T21:17:13.553Z,22.00
2018-07-21T21:19:47.723Z,21.90
2018-07-21T21:22:21.856Z,21.90
2018-07-21T21:24:55.356Z,21.90
2018-07-21T21:27:28.258Z,21.90
2018-07-21T21:30:00.554Z,21.80
2018-07-21T21:32:34.012Z,21.90
2018-07-21T21:37:42.517Z,21.90
2018-07-21T21:40:16.362Z,21.90
2018-07-21T21:42:50.329Z,21.90
2018-07-21T21:45:24.600Z,21.90
2018-07-21T21:47:59.926Z,21.90
2018-07-21T21:50:35.131Z,21.90
2018-07-21T21:53:11.266Z,21.90
2018-07-21T21:55:48.105Z,21.80
2018-07-21T21:58:25.667Z,21.80
2018-07-21T22:01:10.640Z,21.80
2018-07-21T22:03:45.863Z,21.70
2018-07-21T22:06:21.062Z,21.70
2018-07-21T22:08:54.312Z,21.70
2018-07-21T22:11:29.650Z,21.70
2018-07-21T22:14:05.407Z,21.70
2018-07-21T22:16:39.823Z,21.60
2018-07-21T22:19:17.810Z,21.70
2018-07-21T22:21:55.386Z,21.60
2018-07-21T22:24:29.917Z,21.60
2018-07-21T22:29:40.188Z,21.60
2018-07-21T22:32:15.283Z,21.60
2018-07-21T22:34:52.296Z,21.60
2018-07-21T22:37:29.545Z,21.60
2018-07-21T22:42:45.452Z,21.60
2018-07-21T22:45:20.435Z,21.60
2018-07-21T22:47:54.969Z,21.60
2018-07-21T22:50:30.051Z,21.50
2018-07-21T22:53:03.441Z,21.50
2018-07-21T22:55:38.574Z,21.50
2018-07-21T22:58:13.903Z,21.50
